Time;durP1;ratioP1;P1;durP2;ratioP2;P2;SDS_P1;SDS_P2;PMS_P1;PMS_P2;Temp;Humidity;BMP_temperature;BMP_pressure;BME280_temperature;BME280_humidity;BME280_pressure;Samples;Min_cycle;Max_cycle;Signal;HPM_P1;HPM_P2
2023/07/08 00:02:11;;;;;;;;;;;;;;;;;;5047317;28;1981;-49
2023/07/08 00:04:36;;;;;;;;;;;;;;;;;;5046943;28;5120;-49
2023/07/08 00:07:01;;;;;;;;;;;;;;;;;;5047177;28;5004;-52
2023/07/08 00:09:27;;;;;;;;;;;;;;;;;;5046370;28;4462;-51
2023/07/08 00:11:52;;;;;;;;;;;;;;;;;;5037238;28;5028;-57
2023/07/08 00:14:17;;;;;;;;;;;;;;;;;;5027810;28;1098;-56
2023/07/08 00:16:42;;;;;;;;;;;;;;;;;;5027221;28;4403;-57
2023/07/08 00:19:09;;;;;;;;;;;;;;;;;;5027317;28;5038;-56
2023/07/08 00:21:34;;;;;;;;;;;;;;;;;;5027142;28;4471;-56
2023/07/08 00:23:59;;;;;;;;;;;;;;;;;;5024416;28;4480;-57
2023/07/08 00:26:26;;;;;;;;;;;;;;;;;;5025122;28;4872;-57
2023/07/08 00:28:51;;;;;;;;;;;;;;;;;;5043073;28;1141;-58
2023/07/08 00:31:16;;;;;;;;;;;;;;;;;;5025299;28;4600;-58
2023/07/08 00:33:42;;;;;;;;;;;;;;;;;;5027204;28;5106;-57
2023/07/08 00:36:11;;;;;;;;;;;;;;;;;;5027009;28;5104;-57
2023/07/08 00:38:36;;;;;;;;;;;;;;;;;;5012551;28;5038;-57
2023/07/08 00:41:01;;;;;;;;;;;;;;;;;;5018490;28;1915;-58
2023/07/08 00:43:33;;;;;;;;;;;;;;;;;;5041572;28;5092;-58
2023/07/08 00:46:01;;;;;;;;;;;;;;;;;;5026850;28;4448;-56
2023/07/08 00:48:30;;;;;;;;;;;;;;;;;;5042266;28;4867;-57
2023/07/08 00:50:55;;;;;;;;;;;;;;;;;;5042474;28;4527;-58
2023/07/08 00:53:26;;;;;;;;;;;;;;;;;;5026051;28;1164;-57
2023/07/08 00:55:59;;;;;;;;;;;;;;;;;;5046904;28;5144;-57
2023/07/08 00:58:25;;;;;;;;;;;;;;;;;;5062210;28;5053;-57
2023/07/08 01:00:50;;;;;;;;;;;;;;;;;;5028645;28;4969;-57
2023/07/08 01:03:15;;;;;;;;;;;;;;;;;;5062073;28;5024;-57
2023/07/08 01:05:41;;;;;;;;;;;;;;;;;;5046576;28;4638;-58
2023/07/08 01:08:06;;;;;;;;;;;;;;;;;;5061097;28;1413;-57
2023/07/08 01:10:39;;;;;;;;;;;;;;;;;;5046288;28;5099;-58
2023/07/08 01:13:05;;;;;;;;;;;;;;;;;;5064305;28;4951;-57
2023/07/08 01:15:31;;;;;;;;;;;;;;;;;;5047573;28;5043;-57
2023/07/08 01:17:56;;;;;;;;;;;;;;;;;;5065375;28;5090;-57
2023/07/08 01:20:22;;;;;;;;;;;;;;;;;;5049970;28;4516;-57
2023/07/08 01:22:47;;;;;;;;;;;;;;;;;;5065798;28;1099;-55
2023/07/08 01:25:13;;;;;;;;;;;;;;;;;;5049857;28;5094;-57
2023/07/08 01:27:39;;;;;;;;;;;;;;;;;;5049027;28;4962;-57
2023/07/08 01:30:05;;;;;;;;;;;;;;;;;;5046819;28;4578;-57
2023/07/08 01:32:30;;;;;;;;;;;;;;;;;;5049622;28;5224;-57
2023/07/08 01:35:00;;;;;;;;;;;;;;;;;;5050475;28;1094;-57
2023/07/08 01:37:29;;;;;;;;;;;;;;;;;;5064545;28;5080;-57
2023/07/08 01:39:54;;;;;;;;;;;;;;;;;;5027517;28;4790;-57
2023/07/08 01:42:20;;;;;;;;;;;;;;;;;;5049987;28;5016;-57
2023/07/08 01:44:46;;;;;;;;;;;;;;;;;;5049731;28;4985;-57
2023/07/08 01:47:13;;;;;;;;;;;;;;;;;;5049896;28;1284;-57
2023/07/08 01:49:38;;;;;;;;;;;;;;;;;;5031492;28;4404;-57
2023/07/08 01:52:04;;;;;;;;;;;;;;;;;;5049404;28;4472;-58
2023/07/08 01:54:29;;;;;;;;;;;;;;;;;;5022962;28;4471;-58
2023/07/08 01:56:56;;;;;;;;;;;;;;;;;;5025826;28;5018;-57
2023/07/08 01:59:21;;;;;;;;;;;;;;;;;;5037487;28;5016;-51
2023/07/08 02:01:47;;;;;;;;;;;;;;;;;;5036626;28;1977;-58
2023/07/08 02:04:12;;;;;;;;;;;;;;;;;;5024430;28;5307;-57
2023/07/08 02:06:38;;;;;;;;;;;;;;;;;;5035141;28;4658;-57
2023/07/08 02:09:05;;;;;;;;;;;;;;;;;;5043186;28;4999;-58
2023/07/08 02:11:30;;;;;;;;;;;;;;;;;;5029371;28;4518;-58
2023/07/08 02:13:55;;;;;;;;;;;;;;;;;;5029952;28;1271;-58
2023/07/08 02:16:21;;;;;;;;;;;;;;;;;;5041791;28;4497;-58
2023/07/08 02:18:46;;;;;;;;;;;;;;;;;;5037633;28;4451;-58
2023/07/08 02:21:12;;;;;;;;;;;;;;;;;;5029259;28;5180;-58
2023/07/08 02:23:37;;;;;;;;;;;;;;;;;;5029046;28;5100;-58
2023/07/08 02:26:03;;;;;;;;;;;;;;;;;;5029735;28;1153;-57
2023/07/08 02:28:28;;;;;;;;;;;;;;;;;;5029113;28;5024;-57
2023/07/08 02:30:53;;;;;;;;;;;;;;;;;;5039946;28;5149;-58
2023/07/08 02:33:18;;;;;;;;;;;;;;;;;;5049187;28;5104;-58
2023/07/08 02:35:44;;;;;;;;;;;;;;;;;;5048767;28;4625;-57
2023/07/08 02:38:10;;;;;;;;;;;;;;;;;;5047442;28;4872;-58
2023/07/08 02:40:35;;;;;;;;;;;;;;;;;;5044518;28;4435;-58
2023/07/08 02:43:00;;;;;;;;;;;;;;;;;;5048888;28;4981;-58
2023/07/08 02:45:25;;;;;;;;;;;;;;;;;;5048463;28;4978;-57
2023/07/08 02:47:51;;;;;;;;;;;;;;;;;;5040958;28;4462;-58
2023/07/08 02:50:18;;;;;;;;;;;;;;;;;;5049325;28;1255;-57
2023/07/08 02:52:43;;;;;;;;;;;;;;;;;;5048273;28;5117;-57
2023/07/08 02:55:09;;;;;;;;;;;;;;;;;;5048606;28;5013;-58
2023/07/08 02:57:34;;;;;;;;;;;;;;;;;;5048353;28;4522;-57
2023/07/08 02:59:59;;;;;;;;;;;;;;;;;;5048324;28;5112;-58
2023/07/08 03:02:26;;;;;;;;;;;;;;;;;;5047860;28;4978;-57
2023/07/08 03:04:54;;;;;;;;;;;;;;;;;;5048610;28;1172;-57
2023/07/08 03:07:19;;;;;;;;;;;;;;;;;;5040307;28;5085;-56
2023/07/08 03:09:44;;;;;;;;;;;;;;;;;;5047840;28;4654;-57
2023/07/08 03:12:10;;;;;;;;;;;;;;;;;;5048243;28;5024;-57
2023/07/08 03:14:36;;;;;;;;;;;;;;;;;;5047337;28;5006;-57
2023/07/08 03:17:01;;;;;;;;;;;;;;;;;;5048844;28;1140;-57
2023/07/08 03:19:26;;;;;;;;;;;;;;;;;;5048072;28;4637;-57
2023/07/08 03:21:52;;;;;;;;;;;;;;;;;;5047477;28;5159;-57
2023/07/08 03:24:17;;;;;;;;;;;;;;;;;;5047526;28;4965;-57
2023/07/08 03:26:43;;;;;;;;;;;;;;;;;;5060777;28;5348;-57
2023/07/08 03:29:10;;;;;;;;;;;;;;;;;;5047048;28;1095;-57
2023/07/08 03:31:35;;;;;;;;;;;;;;;;;;5060179;28;4893;-58
2023/07/08 03:34:00;;;;;;;;;;;;;;;;;;5047671;28;5034;-58
2023/07/08 03:36:26;;;;;;;;;;;;;;;;;;5047319;28;4443;-57
2023/07/08 03:38:55;;;;;;;;;;;;;;;;;;5043387;28;5243;-56
2023/07/08 03:41:20;;;;;;;;;;;;;;;;;;5045599;28;1921;-57
2023/07/08 03:43:45;;;;;;;;;;;;;;;;;;5047372;28;5666;-58
2023/07/08 03:46:11;;;;;;;;;;;;;;;;;;5047708;28;4828;-58
2023/07/08 03:48:37;;;;;;;;;;;;;;;;;;5047510;28;4982;-57
2023/07/08 03:51:02;;;;;;;;;;;;;;;;;;5047467;28;5078;-57
2023/07/08 03:53:27;;;;;;;;;;;;;;;;;;5062601;28;5139;-56
2023/07/08 03:55:53;;;;;;;;;;;;;;;;;;5043661;28;1264;-57
2023/07/08 03:58:18;;;;;;;;;;;;;;;;;;5062769;28;4432;-57
2023/07/08 04:00:43;;;;;;;;;;;;;;;;;;5046717;28;4970;-56
2023/07/08 04:03:10;;;;;;;;;;;;;;;;;;5047237;28;4505;-57
2023/07/08 04:05:36;;;;;;;;;;;;;;;;;;5029333;28;5007;-57
2023/07/08 04:08:01;;;;;;;;;;;;;;;;;;5047964;28;1553;-56
2023/07/08 04:10:26;;;;;;;;;;;;;;;;;;5044820;28;5026;-57
2023/07/08 04:12:51;;;;;;;;;;;;;;;;;;5044298;28;6215;-57
2023/07/08 04:15:17;;;;;;;;;;;;;;;;;;5047286;28;5228;-57
2023/07/08 04:17:46;;;;;;;;;;;;;;;;;;5047566;28;6031;-57
2023/07/08 04:20:11;;;;;;;;;;;;;;;;;;5062806;28;1973;-57
2023/07/08 04:22:37;;;;;;;;;;;;;;;;;;5062536;28;5012;-57
2023/07/08 04:25:04;;;;;;;;;;;;;;;;;;5040597;28;4860;-57
2023/07/08 04:27:29;;;;;;;;;;;;;;;;;;5046157;28;4918;-57
2023/07/08 04:29:55;;;;;;;;;;;;;;;;;;5047096;28;4442;-56
2023/07/08 04:32:24;;;;;;;;;;;;;;;;;;5046294;28;1152;-58
2023/07/08 04:34:50;;;;;;;;;;;;;;;;;;5027437;28;4433;-57
2023/07/08 04:37:15;;;;;;;;;;;;;;;;;;5026565;28;4949;-58
2023/07/08 04:39:40;;;;;;;;;;;;;;;;;;5025852;28;5218;-58
2023/07/08 04:42:06;;;;;;;;;;;;;;;;;;5027307;28;5154;-58
2023/07/08 04:44:32;;;;;;;;;;;;;;;;;;5026644;28;5106;-56
2023/07/08 04:46:57;;;;;;;;;;;;;;;;;;5028556;28;1307;-57
2023/07/08 04:49:23;;;;;;;;;;;;;;;;;;5045744;28;4396;-57
2023/07/08 04:51:48;;;;;;;;;;;;;;;;;;5030509;28;5125;-57
2023/07/08 04:54:14;;;;;;;;;;;;;;;;;;5030616;28;4636;-58
2023/07/08 04:56:39;;;;;;;;;;;;;;;;;;5030206;28;5406;-57
2023/07/08 04:59:05;;;;;;;;;;;;;;;;;;5034357;28;1141;-57
2023/07/08 05:01:30;;;;;;;;;;;;;;;;;;5029564;28;4440;-57
2023/07/08 05:03:55;;;;;;;;;;;;;;;;;;5030030;28;4977;-57
2023/07/08 05:06:21;;;;;;;;;;;;;;;;;;5038459;28;5049;-57
2023/07/08 05:08:46;;;;;;;;;;;;;;;;;;5049419;28;5028;-57
2023/07/08 05:11:11;;;;;;;;;;;;;;;;;;5051045;28;1101;-56
2023/07/08 05:13:36;;;;;;;;;;;;;;;;;;5013860;28;5039;-56
2023/07/08 05:16:02;;;;;;;;;;;;;;;;;;5018587;28;5325;-57
2023/07/08 05:18:27;;;;;;;;;;;;;;;;;;5029874;28;4483;-57
2023/07/08 05:20:52;;;;;;;;;;;;;;;;;;5026764;28;4918;-57
2023/07/08 05:23:17;;;;;;;;;;;;;;;;;;5030861;28;1263;-56
2023/07/08 05:25:43;;;;;;;;;;;;;;;;;;5029806;28;5106;-58
2023/07/08 05:28:09;;;;;;;;;;;;;;;;;;5029851;28;4442;-57
2023/07/08 05:30:34;;;;;;;;;;;;;;;;;;5026369;28;4653;-57
2023/07/08 05:33:00;;;;;;;;;;;;;;;;;;5029841;28;5483;-57
2023/07/08 05:35:25;;;;;;;;;;;;;;;;;;5030003;28;4994;-55
2023/07/08 05:37:50;;;;;;;;;;;;;;;;;;5030232;28;5020;-57
2023/07/08 05:40:16;;;;;;;;;;;;;;;;;;5045557;28;4539;-57
2023/07/08 05:42:41;;;;;;;;;;;;;;;;;;5049883;28;4496;-57
2023/07/08 05:45:06;;;;;;;;;;;;;;;;;;5049677;28;4984;-57
2023/07/08 05:47:32;;;;;;;;;;;;;;;;;;5047792;28;5012;-57
2023/07/08 05:49:57;;;;;;;;;;;;;;;;;;5050588;28;1313;-58
2023/07/08 05:52:22;;;;;;;;;;;;;;;;;;5049390;28;4596;-56
2023/07/08 05:54:47;;;;;;;;;;;;;;;;;;5049684;28;5552;-58
2023/07/08 05:57:13;;;;;;;;;;;;;;;;;;5048985;28;4829;-55
2023/07/08 05:59:42;;;;;;;;;;;;;;;;;;5035553;28;5012;-57
2023/07/08 06:02:08;;;;;;;;;;;;;;;;;;5050075;28;1914;-57
2023/07/08 06:04:34;;;;;;;;;;;;;;;;;;5049226;28;4964;-58
2023/07/08 06:06:59;;;;;;;;;;;;;;;;;;5040174;28;4999;-58
2023/07/08 06:09:24;;;;;;;;;;;;;;;;;;5049414;28;5086;-57
2023/07/08 06:11:49;;;;;;;;;;;;;;;;;;5046795;28;4915;-57
2023/07/08 06:14:15;;;;;;;;;;;;;;;;;;5044692;28;3362;-57
2023/07/08 06:16:40;;;;;;;;;;;;;;;;;;5044515;28;4431;-57
2023/07/08 06:19:05;;;;;;;;;;;;;;;;;;5047650;28;4951;-57
2023/07/08 06:21:31;;;;;;;;;;;;;;;;;;5050516;28;5071;-58
2023/07/08 06:23:56;;;;;;;;;;;;;;;;;;5061055;28;4671;-57
2023/07/08 06:26:21;;;;;;;;;;;;;;;;;;5045170;28;4597;-53
2023/07/08 06:28:46;;;;;;;;;;;;;;;;;;5049206;28;1149;-56
2023/07/08 06:31:12;;;;;;;;;;;;;;;;;;5044723;28;4596;-56
2023/07/08 06:33:37;;;;;;;;;;;;;;;;;;5048371;28;4728;-57
2023/07/08 06:36:02;;;;;;;;;;;;;;;;;;5047985;28;5101;-54
2023/07/08 06:38:27;;;;;;;;;;;;;;;;;;5046942;28;5235;-56
2023/07/08 06:40:53;;;;;;;;;;;;;;;;;;5047598;28;3265;-56
2023/07/08 06:43:18;;;;;;;;;;;;;;;;;;5049423;28;4505;-56
2023/07/08 06:45:43;;;;;;;;;;;;;;;;;;5039088;28;4965;-56
2023/07/08 06:48:09;;;;;;;;;;;;;;;;;;5051558;28;5006;-57
2023/07/08 06:50:34;;;;;;;;;;;;;;;;;;5047196;28;4577;-57
2023/07/08 06:52:59;;;;;;;;;;;;;;;;;;5045038;28;3258;-56
2023/07/08 06:55:24;;;;;;;;;;;;;;;;;;5048401;28;4924;-56
2023/07/08 06:57:50;;;;;;;;;;;;;;;;;;5048109;28;4644;-56
2023/07/08 07:00:15;;;;;;;;;;;;;;;;;;5043536;28;5124;-57
2023/07/08 07:02:40;;;;;;;;;;;;;;;;;;5050321;28;4906;-57
2023/07/08 07:05:06;;;;;;;;;;;;;;;;;;5045874;28;3261;-57
2023/07/08 07:07:31;;;;;;;;;;;;;;;;;;5030403;28;5293;-56
2023/07/08 07:09:56;;;;;;;;;;;;;;;;;;5044747;28;5087;-55
2023/07/08 07:12:23;;;;;;;;;;;;;;;;;;5043933;28;4533;-48
2023/07/08 07:14:49;;;;;;;;;;;;;;;;;;5045479;28;5124;-57
2023/07/08 07:17:15;;;;;;;;;;;;;;;;;;5046326;28;3697;-58
2023/07/08 07:19:40;;;;;;;;;;;;;;;;;;5047140;28;4897;-56
2023/07/08 07:22:05;;;;;;;;;;;;;;;;;;5047220;28;4461;-57
2023/07/08 07:24:31;;;;;;;;;;;;;;;;;;5047491;28;4488;-57
2023/07/08 07:26:56;;;;;;;;;;;;;;;;;;5043360;28;5055;-58
2023/07/08 07:29:21;;;;;;;;;;;;;;;;;;5045484;28;5078;-55
2023/07/08 07:31:47;;;;;;;;;;;;;;;;;;5042622;28;3276;-57
2023/07/08 07:34:14;;;;;;;;;;;;;;;;;;5049104;28;4820;-59
2023/07/08 07:36:39;;;;;;;;;;;;;;;;;;5045584;28;5097;-60
2023/07/08 07:39:04;;;;;;;;;;;;;;;;;;5027585;28;5058;-58
2023/07/08 07:41:30;;;;;;;;;;;;;;;;;;5054018;28;5071;-57
2023/07/08 07:43:55;;;;;;;;;;;;;;;;;;5038165;28;3796;-59
2023/07/08 07:46:21;;;;;;;;;;;;;;;;;;5042067;28;4670;-60
2023/07/08 07:48:46;;;;;;;;;;;;;;;;;;5044001;28;4585;-60
2023/07/08 07:51:12;;;;;;;;;;;;;;;;;;5037395;28;4479;-59
2023/07/08 07:53:38;;;;;;;;;;;;;;;;;;5042657;28;5112;-63
2023/07/08 07:56:03;;;;;;;;;;;;;;;;;;5036670;28;3268;-60
2023/07/08 07:58:29;;;;;;;;;;;;;;;;;;5042996;28;5112;-62
2023/07/08 08:00:54;;;;;;;;;;;;;;;;;;5037394;28;4487;-64
2023/07/08 08:03:20;;;;;;;;;;;;;;;;;;5040757;28;4578;-58
2023/07/08 08:05:45;;;;;;;;;;;;;;;;;;5050432;28;5037;-59
2023/07/08 08:08:10;;;;;;;;;;;;;;;;;;5030478;28;6240;-60
2023/07/08 08:10:35;;;;;;;;;;;;;;;;;;5039392;28;5346;-59
2023/07/08 08:13:01;;;;;;;;;;;;;;;;;;5030739;28;6246;-55
2023/07/08 08:15:26;;;;;;;;;;;;;;;;;;5037799;28;5267;-63
2023/07/08 08:17:52;;;;;;;;;;;;;;;;;;5020792;28;5304;-63
2023/07/08 08:20:18;;;;;;;;;;;;;;;;;;5038811;28;4495;-64
2023/07/08 08:22:43;;;;;;;;;;;;;;;;;;5043466;28;5152;-62
2023/07/08 08:25:10;;;;;;;;;;;;;;;;;;5044832;28;4792;-62
2023/07/08 08:27:35;;;;;;;;;;;;;;;;;;5044859;28;3251;-65
2023/07/08 08:30:00;;;;;;;;;;;;;;;;;;5059278;28;5289;-64
2023/07/08 08:32:26;;;;;;;;;;;;;;;;;;5045392;28;5008;-60
2023/07/08 08:34:51;;;;;;;;;;;;;;;;;;5044960;28;4480;-59
2023/07/08 08:37:16;;;;;;;;;;;;;;;;;;5046394;28;5078;-60
2023/07/08 08:39:41;;;;;;;;;;;;;;;;;;5043323;28;3349;-60
2023/07/08 08:42:09;;;;;;;;;;;;;;;;;;5040539;28;4880;-62
2023/07/08 08:44:35;;;;;;;;;;;;;;;;;;5050973;28;5084;-60
2023/07/08 08:47:09;;;;;;;;;;;;;;;;;;5027659;28;5212;-61
2023/07/08 08:49:35;;;;;;;;;;;;;;;;;;5058015;28;5077;-57
2023/07/08 08:52:00;;;;;;;;;;;;;;;;;;5046794;28;1180;-58
2023/07/08 08:54:25;;;;;;;;;;;;;;;;;;5046678;28;5011;-56
2023/07/08 08:56:57;;;;;;;;;;;;;;;;;;5062359;28;4669;-56
2023/07/08 08:59:40;;;;;;;;;;;;;;;;;;5042976;28;4648;-62
2023/07/08 09:02:18;;;;;;;;;;;;;;;;;;5046404;28;4701;-61
2023/07/08 09:04:43;;;;;;;;;;;;;;;;;;5045334;28;4976;-59
2023/07/08 09:07:12;;;;;;;;;;;;;;;;;;5063217;28;5056;-61
2023/07/08 09:09:37;;;;;;;;;;;;;;;;;;5044220;28;1381;-61
2023/07/08 09:12:03;;;;;;;;;;;;;;;;;;5047303;28;4597;-59
2023/07/08 09:14:29;;;;;;;;;;;;;;;;;;5061041;28;4857;-59
2023/07/08 09:17:13;;;;;;;;;;;;;;;;;;5046191;28;4505;-60
2023/07/08 09:19:47;;;;;;;;;;;;;;;;;;5047890;28;5050;-59
2023/07/08 09:22:17;;;;;;;;;;;;;;;;;;5047517;28;5232;-59
2023/07/08 09:24:54;;;;;;;;;;;;;;;;;;5063191;28;1411;-59
2023/07/08 09:27:19;;;;;;;;;;;;;;;;;;5048605;28;4651;-62
2023/07/08 09:29:45;;;;;;;;;;;;;;;;;;5049646;28;5009;-62
2023/07/08 09:32:16;;;;;;;;;;;;;;;;;;5064870;28;4423;-61
2023/07/08 09:34:42;;;;;;;;;;;;;;;;;;5047875;28;4977;-60
2023/07/08 09:37:28;;;;;;;;;;;;;;;;;;5048565;28;4946;-60
2023/07/08 09:39:54;;;;;;;;;;;;;;;;;;5048391;28;3044;-61
2023/07/08 09:42:20;;;;;;;;;;;;;;;;;;5048106;28;4737;-59
2023/07/08 09:44:45;;;;;;;;;;;;;;;;;;5028755;28;4911;-60
2023/07/08 09:47:24;;;;;;;;;;;;;;;;;;5037288;28;4862;-60
2023/07/08 09:49:49;;;;;;;;;;;;;;;;;;5033766;28;5199;-61
2023/07/08 09:52:14;;;;;;;;;;;;;;;;;;5035970;28;5128;-59
2023/07/08 09:54:43;;;;;;;;;;;;;;;;;;5046572;28;3383;-59
2023/07/08 09:57:12;;;;;;;;;;;;;;;;;;5058181;28;4895;-61
2023/07/08 09:59:39;;;;;;;;;;;;;;;;;;5063151;28;4716;-59
2023/07/08 10:02:17;;;;;;;;;;;;;;;;;;5023096;28;4509;-59
2023/07/08 10:04:42;;;;;;;;;;;;;;;;;;5062277;28;4985;-54
2023/07/08 10:07:12;;;;;;;;;;;;;;;;;;5046305;28;4581;-53
2023/07/08 10:09:37;;;;;;;;;;;;;;;;;;5055767;28;3397;-55
2023/07/08 10:12:02;;;;;;;;;;;;;;;;;;5045626;28;5287;-54
2023/07/08 10:14:38;;;;;;;;;;;;;;;;;;5059418;28;4754;-54
2023/07/08 10:17:03;;;;;;;;;;;;;;;;;;5054837;28;5055;-57
2023/07/08 10:19:29;;;;;;;;;;;;;;;;;;5011867;28;5132;-57
2023/07/08 10:22:03;;;;;;;;;;;;;;;;;;5028463;28;5097;-58
2023/07/08 10:24:47;;;;;;;;;;;;;;;;;;5028701;28;6116;-57
2023/07/08 10:27:19;;;;;;;;;;;;;;;;;;5046462;28;4456;-57
2023/07/08 10:30:08;;;;;;;;;;;;;;;;;;5016598;28;5051;-57
2023/07/08 10:32:41;;;;;;;;;;;;;;;;;;5028658;28;4989;-57
2023/07/08 10:35:17;;;;;;;;;;;;;;;;;;5044169;28;4943;-57
2023/07/08 10:37:43;;;;;;;;;;;;;;;;;;5047392;28;5086;-55
2023/07/08 10:40:23;;;;;;;;;;;;;;;;;;5047892;28;5038;-57
2023/07/08 10:43:02;;;;;;;;;;;;;;;;;;5029822;28;1116;-55
2023/07/08 10:45:31;;;;;;;;;;;;;;;;;;5060487;28;4770;-58
2023/07/08 10:48:02;;;;;;;;;;;;;;;;;;5049419;28;5103;-57
2023/07/08 10:50:37;;;;;;;;;;;;;;;;;;5048858;28;5020;-57
2023/07/08 10:53:02;;;;;;;;;;;;;;;;;;5044152;28;4940;-57
2023/07/08 10:55:30;;;;;;;;;;;;;;;;;;5048866;28;5049;-57
2023/07/08 10:57:55;;;;;;;;;;;;;;;;;;5046338;28;1108;-57
2023/07/08 11:00:33;;;;;;;;;;;;;;;;;;5048523;28;4498;-57
2023/07/08 11:03:20;;;;;;;;;;;;;;;;;;5048289;28;5023;-57
2023/07/08 11:05:47;;;;;;;;;;;;;;;;;;5042697;28;5143;-57
2023/07/08 11:08:29;;;;;;;;;;;;;;;;;;5061448;28;5704;-54
2023/07/08 11:11:01;;;;;;;;;;;;;;;;;;5064243;28;5063;-57
2023/07/08 11:13:27;;;;;;;;;;;;;;;;;;5063693;28;5129;-57
2023/07/08 11:16:02;;;;;;;;;;;;;;;;;;5062398;28;2387;-57
2023/07/08 11:18:30;;;;;;;;;;;;;;;;;;5063830;28;5235;-58
2023/07/08 11:21:16;;;;;;;;;;;;;;;;;;5058873;28;5052;-57
2023/07/08 11:23:49;;;;;;;;;;;;;;;;;;5042225;28;5250;-58
2023/07/08 11:26:21;;;;;;;;;;;;;;;;;;5047061;28;4498;-58
2023/07/08 11:28:46;;;;;;;;;;;;;;;;;;5048194;28;5004;-57
2023/07/08 11:31:11;;;;;;;;;;;;;;;;;;5063328;28;4831;-57
2023/07/08 11:33:37;;;;;;;;;;;;;;;;;;5059131;28;1155;-57
2023/07/08 11:36:03;;;;;;;;;;;;;;;;;;5047922;28;5102;-58
2023/07/08 11:38:28;;;;;;;;;;;;;;;;;;5062534;28;5105;-57
2023/07/08 11:40:56;;;;;;;;;;;;;;;;;;5048008;28;5049;-58
2023/07/08 11:43:22;;;;;;;;;;;;;;;;;;5047350;28;5198;-57
2023/07/08 11:45:48;;;;;;;;;;;;;;;;;;5064012;28;1122;-57
2023/07/08 11:48:18;;;;;;;;;;;;;;;;;;5047362;28;4964;-57
2023/07/08 11:50:44;;;;;;;;;;;;;;;;;;5062947;28;4941;-55
2023/07/08 11:53:29;;;;;;;;;;;;;;;;;;5047409;28;4978;-57
2023/07/08 11:55:56;;;;;;;;;;;;;;;;;;5025284;28;5087;-57
2023/07/08 11:58:25;;;;;;;;;;;;;;;;;;5047335;28;4895;-57
2023/07/08 12:01:09;;;;;;;;;;;;;;;;;;5047120;28;1983;-56
2023/07/08 12:03:35;;;;;;;;;;;;;;;;;;5046524;28;5083;-57
2023/07/08 12:06:06;;;;;;;;;;;;;;;;;;5062924;28;5038;-56
2023/07/08 12:08:37;;;;;;;;;;;;;;;;;;5035012;28;5022;-57
2023/07/08 12:11:03;;;;;;;;;;;;;;;;;;5027300;28;4526;-57
2023/07/08 12:13:28;;;;;;;;;;;;;;;;;;5027524;28;5073;-57
2023/07/08 12:15:53;;;;;;;;;;;;;;;;;;5022160;28;1214;-57
2023/07/08 12:18:18;;;;;;;;;;;;;;;;;;5042282;28;4609;-58
2023/07/08 12:21:10;;;;;;;;;;;;;;;;;;5027984;28;4916;-58
2023/07/08 12:23:35;;;;;;;;;;;;;;;;;;5024465;28;4990;-58
2023/07/08 12:26:00;;;;;;;;;;;;;;;;;;5027658;28;4984;-57
2023/07/08 12:28:26;;;;;;;;;;;;;;;;;;5027536;28;4853;-57
2023/07/08 12:30:51;;;;;;;;;;;;;;;;;;5027400;28;1229;-57
2023/07/08 12:33:28;;;;;;;;;;;;;;;;;;5046030;28;5565;-56
2023/07/08 12:35:53;;;;;;;;;;;;;;;;;;5062640;28;5711;-57
2023/07/08 12:38:18;;;;;;;;;;;;;;;;;;5046634;28;4481;-57
2023/07/08 12:40:44;;;;;;;;;;;;;;;;;;5047489;28;4820;-57
2023/07/08 12:43:09;;;;;;;;;;;;;;;;;;5044401;28;4647;-57
2023/07/08 12:45:34;;;;;;;;;;;;;;;;;;5026234;28;1243;-56
2023/07/08 12:48:00;;;;;;;;;;;;;;;;;;5030348;28;5079;-56
2023/07/08 12:50:25;;;;;;;;;;;;;;;;;;5028193;28;5159;-57
2023/07/08 12:52:50;;;;;;;;;;;;;;;;;;5032396;28;5043;-58
2023/07/08 12:55:16;;;;;;;;;;;;;;;;;;5046338;28;4483;-58
2023/07/08 12:57:42;;;;;;;;;;;;;;;;;;5029173;28;1413;-57
2023/07/08 13:00:15;;;;;;;;;;;;;;;;;;5057105;28;5075;-56
2023/07/08 13:02:40;;;;;;;;;;;;;;;;;;5058450;28;5070;-57
2023/07/08 13:05:05;;;;;;;;;;;;;;;;;;5046861;28;4468;-57
2023/07/08 13:07:35;;;;;;;;;;;;;;;;;;5043615;28;5059;-57
2023/07/08 13:10:00;;;;;;;;;;;;;;;;;;5031391;28;1513;-57
2023/07/08 13:12:26;;;;;;;;;;;;;;;;;;5023159;28;4950;-57
2023/07/08 13:14:52;;;;;;;;;;;;;;;;;;5028093;28;5221;-57
2023/07/08 13:17:17;;;;;;;;;;;;;;;;;;5030192;28;5140;-57
2023/07/08 13:19:42;;;;;;;;;;;;;;;;;;5029169;28;4599;-57
2023/07/08 13:22:10;;;;;;;;;;;;;;;;;;5038940;28;5144;-57
2023/07/08 13:24:36;;;;;;;;;;;;;;;;;;5030786;28;1198;-56
2023/07/08 13:27:03;;;;;;;;;;;;;;;;;;5030388;28;4926;-57
2023/07/08 13:29:33;;;;;;;;;;;;;;;;;;5029240;28;4667;-57
2023/07/08 13:32:05;;;;;;;;;;;;;;;;;;5029190;28;4830;-58
2023/07/08 13:34:30;;;;;;;;;;;;;;;;;;5030570;28;5014;-57
2023/07/08 13:36:55;;;;;;;;;;;;;;;;;;5046144;28;1113;-57
2023/07/08 13:39:23;;;;;;;;;;;;;;;;;;5029230;28;4929;-58
2023/07/08 13:41:48;;;;;;;;;;;;;;;;;;5042651;28;5076;-57
2023/07/08 13:44:13;;;;;;;;;;;;;;;;;;5040307;28;4598;-58
2023/07/08 13:46:40;;;;;;;;;;;;;;;;;;5050256;28;4820;-58
2023/07/08 13:49:12;;;;;;;;;;;;;;;;;;5050398;28;5153;-57
2023/07/08 13:51:38;;;;;;;;;;;;;;;;;;5050270;28;1102;-57
2023/07/08 13:54:13;;;;;;;;;;;;;;;;;;5048270;28;4610;-58
2023/07/08 13:56:39;;;;;;;;;;;;;;;;;;5047301;28;5060;-57
2023/07/08 13:59:05;;;;;;;;;;;;;;;;;;5064706;28;5067;-56
2023/07/08 14:01:30;;;;;;;;;;;;;;;;;;5027496;28;5022;-58
2023/07/08 14:03:57;;;;;;;;;;;;;;;;;;5029676;28;2043;-56
2023/07/08 14:06:24;;;;;;;;;;;;;;;;;;5064280;28;4924;-57
2023/07/08 14:08:53;;;;;;;;;;;;;;;;;;5032939;28;5021;-57
2023/07/08 14:11:18;;;;;;;;;;;;;;;;;;5029927;28;4947;-58
2023/07/08 14:13:43;;;;;;;;;;;;;;;;;;5033122;28;5217;-58
2023/07/08 14:16:10;;;;;;;;;;;;;;;;;;5051850;28;4424;-58
2023/07/08 14:18:35;;;;;;;;;;;;;;;;;;5070527;28;1431;-57
2023/07/08 14:21:01;;;;;;;;;;;;;;;;;;5032727;28;4917;-57
2023/07/08 14:23:26;;;;;;;;;;;;;;;;;;5029541;28;4843;-57
2023/07/08 14:25:51;;;;;;;;;;;;;;;;;;5029155;28;4468;-58
2023/07/08 14:28:16;;;;;;;;;;;;;;;;;;5029651;28;4831;-57
2023/07/08 14:30:43;;;;;;;;;;;;;;;;;;5029876;28;1168;-57
2023/07/08 14:33:11;;;;;;;;;;;;;;;;;;5029073;28;4941;-58
2023/07/08 14:35:37;;;;;;;;;;;;;;;;;;5029188;28;4446;-56
2023/07/08 14:38:02;;;;;;;;;;;;;;;;;;5029144;28;5016;-58
2023/07/08 14:40:32;;;;;;;;;;;;;;;;;;5029153;28;4639;-57
2023/07/08 14:43:04;;;;;;;;;;;;;;;;;;5029383;28;2000;-57
2023/07/08 14:45:31;;;;;;;;;;;;;;;;;;5029433;28;5181;-57
2023/07/08 14:47:56;;;;;;;;;;;;;;;;;;5044126;28;4849;-57
2023/07/08 14:50:22;;;;;;;;;;;;;;;;;;5026416;28;4467;-58
2023/07/08 14:52:47;;;;;;;;;;;;;;;;;;5028919;28;4849;-57
2023/07/08 14:55:12;;;;;;;;;;;;;;;;;;5013835;28;5005;-57
2023/07/08 14:57:44;;;;;;;;;;;;;;;;;;5028931;28;1129;-57
2023/07/08 15:00:11;;;;;;;;;;;;;;;;;;5041587;28;5201;-58
2023/07/08 15:02:37;;;;;;;;;;;;;;;;;;5010706;28;5118;-57
2023/07/08 15:05:02;;;;;;;;;;;;;;;;;;5037957;28;4926;-57
2023/07/08 15:07:27;;;;;;;;;;;;;;;;;;5028439;28;5048;-57
2023/07/08 15:09:53;;;;;;;;;;;;;;;;;;5028618;28;1680;-58
2023/07/08 15:12:19;;;;;;;;;;;;;;;;;;5027956;28;4985;-56
2023/07/08 15:14:44;;;;;;;;;;;;;;;;;;5026672;28;4660;-57
2023/07/08 15:17:11;;;;;;;;;;;;;;;;;;5037653;28;4631;-57
2023/07/08 15:19:36;;;;;;;;;;;;;;;;;;5055067;28;4665;-57
2023/07/08 15:22:01;;;;;;;;;;;;;;;;;;5048195;28;4966;-57
2023/07/08 15:24:27;;;;;;;;;;;;;;;;;;5044758;28;4850;-57
2023/07/08 15:26:52;;;;;;;;;;;;;;;;;;5027509;28;4821;-58
2023/07/08 15:29:21;;;;;;;;;;;;;;;;;;5020360;28;4844;-57
2023/07/08 15:31:46;;;;;;;;;;;;;;;;;;5046119;28;4603;-57
2023/07/08 15:34:12;;;;;;;;;;;;;;;;;;5040592;28;4872;-57
2023/07/08 15:36:38;;;;;;;;;;;;;;;;;;5048306;28;1243;-57
2023/07/08 15:39:03;;;;;;;;;;;;;;;;;;5047396;28;4796;-57
2023/07/08 15:41:28;;;;;;;;;;;;;;;;;;5062196;28;4844;-57
2023/07/08 15:43:54;;;;;;;;;;;;;;;;;;5035246;28;4945;-57
2023/07/08 15:46:20;;;;;;;;;;;;;;;;;;5045741;28;5380;-56
2023/07/08 15:48:45;;;;;;;;;;;;;;;;;;5058025;28;3337;-59
2023/07/08 15:51:14;;;;;;;;;;;;;;;;;;5043113;28;4587;-59
2023/07/08 15:53:39;;;;;;;;;;;;;;;;;;5044077;28;4508;-58
2023/07/08 15:56:05;;;;;;;;;;;;;;;;;;5045648;28;4999;-59
2023/07/08 15:58:34;;;;;;;;;;;;;;;;;;5044721;28;5062;-58
2023/07/08 16:00:59;;;;;;;;;;;;;;;;;;5035270;28;3165;-60
2023/07/08 16:03:28;;;;;;;;;;;;;;;;;;5035877;28;5033;-60
2023/07/08 16:05:54;;;;;;;;;;;;;;;;;;5023577;28;5776;-60
2023/07/08 16:08:19;;;;;;;;;;;;;;;;;;5043074;28;4504;-59
2023/07/08 16:10:47;;;;;;;;;;;;;;;;;;5036833;28;4679;-59
2023/07/08 16:13:12;;;;;;;;;;;;;;;;;;5023669;28;4965;-60
2023/07/08 16:15:38;;;;;;;;;;;;;;;;;;5023324;28;3456;-59
2023/07/08 16:18:03;;;;;;;;;;;;;;;;;;5024640;28;4985;-59
2023/07/08 16:20:29;;;;;;;;;;;;;;;;;;5023316;28;5108;-58
2023/07/08 16:22:54;;;;;;;;;;;;;;;;;;5030316;28;5216;-59
2023/07/08 16:25:29;;;;;;;;;;;;;;;;;;5059991;28;5072;-59
2023/07/08 16:27:55;;;;;;;;;;;;;;;;;;5043636;28;3087;-59
2023/07/08 16:30:20;;;;;;;;;;;;;;;;;;5043750;28;4607;-58
2023/07/08 16:32:45;;;;;;;;;;;;;;;;;;5028400;28;4481;-60
2023/07/08 16:35:11;;;;;;;;;;;;;;;;;;5032330;28;5039;-60
2023/07/08 16:37:37;;;;;;;;;;;;;;;;;;5045874;28;5002;-60
2023/07/08 16:40:03;;;;;;;;;;;;;;;;;;5042020;28;5247;-61
2023/07/08 16:42:28;;;;;;;;;;;;;;;;;;5042937;28;3294;-59
2023/07/08 16:44:54;;;;;;;;;;;;;;;;;;5046839;28;4401;-61
2023/07/08 16:47:19;;;;;;;;;;;;;;;;;;5037881;28;5106;-59
2023/07/08 16:49:44;;;;;;;;;;;;;;;;;;5030575;28;4493;-59
2023/07/08 16:52:14;;;;;;;;;;;;;;;;;;5027619;28;4488;-61
2023/07/08 16:54:39;;;;;;;;;;;;;;;;;;5047589;28;3337;-61
2023/07/08 16:57:06;;;;;;;;;;;;;;;;;;5044273;28;4622;-61
2023/07/08 16:59:32;;;;;;;;;;;;;;;;;;5031839;28;4830;-61
2023/07/08 17:01:57;;;;;;;;;;;;;;;;;;5046593;28;4828;-61